sensor_id;sensor_type;location;lat;lon;timestamp;pressure;altitude;pressure_sealevel;temperature;humidity
55517;BME280;41724;51.176;-0.708;2022-10-31T00:01:51;101218.37;;;16.48;55.35
55517;BME280;41724;51.176;-0.708;2022-10-31T00:04:18;101213.78;;;16.75;55.14
55517;BME280;41724;51.176;-0.708;2022-10-31T00:06:46;101215.53;;;16.41;55.54
55517;BME280;41724;51.176;-0.708;2022-10-31T00:09:13;101214.45;;;16.38;55.94
55517;BME280;41724;51.176;-0.708;2022-10-31T00:11:40;101214.72;;;16.42;55.59
55517;BME280;41724;51.176;-0.708;2022-10-31T00:14:07;101220.23;;;16.77;55.94
55517;BME280;41724;51.176;-0.708;2022-10-31T00:16:35;101219.74;;;16.25;55.53
55517;BME280;41724;51.176;-0.708;2022-10-31T00:19:03;101217.54;;;16.20;54.98
55517;BME280;41724;51.176;-0.708;2022-10-31T00:21:32;101213.41;;;16.33;55.25
55517;BME280;41724;51.176;-0.708;2022-10-31T00:24:01;101209.56;;;16.33;54.80
55517;BME280;41724;51.176;-0.708;2022-10-31T00:26:28;101206.55;;;16.43;54.90
55517;BME280;41724;51.176;-0.708;2022-10-31T00:28:57;101208.81;;;15.92;54.72
55517;BME280;41724;51.176;-0.708;2022-10-31T00:31:24;101209.18;;;16.35;54.73
55517;BME280;41724;51.176;-0.708;2022-10-31T00:33:51;101211.35;;;16.27;54.50
55517;BME280;41724;51.176;-0.708;2022-10-31T00:36:20;101211.62;;;16.21;54.52
55517;BME280;41724;51.176;-0.708;2022-10-31T00:38:47;101207.59;;;16.16;54.81
55517;BME280;41724;51.176;-0.708;2022-10-31T00:41:16;101207.50;;;16.15;54.80
55517;BME280;41724;51.176;-0.708;2022-10-31T00:43:43;101205.85;;;15.96;55.26
55517;BME280;41724;51.176;-0.708;2022-10-31T00:46:11;101208.39;;;15.80;55.04
55517;BME280;41724;51.176;-0.708;2022-10-31T00:48:38;101205.08;;;15.86;55.30
55517;BME280;41724;51.176;-0.708;2022-10-31T00:51:06;101206.94;;;15.94;55.56
55517;BME280;41724;51.176;-0.708;2022-10-31T00:53:33;101211.36;;;16.01;55.79
55517;BME280;41724;51.176;-0.708;2022-10-31T00:56:00;101207.38;;;15.93;55.87
55517;BME280;41724;51.176;-0.708;2022-10-31T00:58:27;101204.12;;;15.83;56.45
55517;BME280;41724;51.176;-0.708;2022-10-31T01:00:55;101207.09;;;15.74;57.24
55517;BME280;41724;51.176;-0.708;2022-10-31T01:03:23;101202.10;;;16.01;56.11
55517;BME280;41724;51.176;-0.708;2022-10-31T01:05:59;101201.38;;;15.88;56.87
55517;BME280;41724;51.176;-0.708;2022-10-31T01:08:27;101201.46;;;15.29;59.68
55517;BME280;41724;51.176;-0.708;2022-10-31T01:11:01;101200.93;;;15.02;61.77
55517;BME280;41724;51.176;-0.708;2022-10-31T01:13:28;101202.33;;;16.17;59.55
55517;BME280;41724;51.176;-0.708;2022-10-31T01:15:56;101199.28;;;16.61;58.44
55517;BME280;41724;51.176;-0.708;2022-10-31T01:18:24;101200.48;;;16.14;58.38
55517;BME280;41724;51.176;-0.708;2022-10-31T01:21:00;101194.04;;;16.35;57.93
55517;BME280;41724;51.176;-0.708;2022-10-31T01:23:28;101186.63;;;16.50;57.80
55517;BME280;41724;51.176;-0.708;2022-10-31T01:26:06;101193.38;;;16.57;57.86
55517;BME280;41724;51.176;-0.708;2022-10-31T01:28:34;101195.70;;;16.60;58.30
55517;BME280;41724;51.176;-0.708;2022-10-31T01:31:03;101195.40;;;16.85;57.02
55517;BME280;41724;51.176;-0.708;2022-10-31T01:33:30;101193.64;;;16.60;57.99
55517;BME280;41724;51.176;-0.708;2022-10-31T01:35:58;101192.24;;;16.69;57.38
55517;BME280;41724;51.176;-0.708;2022-10-31T01:38:25;101188.94;;;16.74;55.77
55517;BME280;41724;51.176;-0.708;2022-10-31T01:40:52;101183.30;;;16.60;56.18
55517;BME280;41724;51.176;-0.708;2022-10-31T01:43:19;101184.12;;;16.73;55.23
55517;BME280;41724;51.176;-0.708;2022-10-31T01:45:52;101187.61;;;16.59;55.90
55517;BME280;41724;51.176;-0.708;2022-10-31T01:48:23;101187.75;;;16.71;55.73
55517;BME280;41724;51.176;-0.708;2022-10-31T01:50:54;101190.48;;;16.45;55.77
55517;BME280;41724;51.176;-0.708;2022-10-31T01:53:23;101189.03;;;16.39;55.27
55517;BME280;41724;51.176;-0.708;2022-10-31T01:55:51;101191.92;;;16.51;55.57
55517;BME280;41724;51.176;-0.708;2022-10-31T01:58:21;101192.01;;;16.54;55.27
55517;BME280;41724;51.176;-0.708;2022-10-31T02:00:52;101198.30;;;16.23;54.85
55517;BME280;41724;51.176;-0.708;2022-10-31T02:03:22;101195.09;;;16.14;55.20
55517;BME280;41724;51.176;-0.708;2022-10-31T02:05:50;101194.35;;;16.26;57.40
55517;BME280;41724;51.176;-0.708;2022-10-31T02:08:23;101192.21;;;16.26;57.49
55517;BME280;41724;51.176;-0.708;2022-10-31T02:10:52;101189.74;;;16.41;57.60
55517;BME280;41724;51.176;-0.708;2022-10-31T02:13:21;101188.26;;;16.57;56.53
55517;BME280;41724;51.176;-0.708;2022-10-31T02:15:51;101191.43;;;16.34;56.32
55517;BME280;41724;51.176;-0.708;2022-10-31T02:18:20;101194.73;;;16.18;57.09
55517;BME280;41724;51.176;-0.708;2022-10-31T02:20:55;101191.06;;;16.24;58.52
55517;BME280;41724;51.176;-0.708;2022-10-31T02:24:13;101185.85;;;16.40;57.16
55517;BME280;41724;51.176;-0.708;2022-10-31T02:26:54;101177.91;;;16.35;58.92
55517;BME280;41724;51.176;-0.708;2022-10-31T02:29:40;101174.63;;;16.50;57.71
55517;BME280;41724;51.176;-0.708;2022-10-31T02:32:16;101170.77;;;16.61;57.36
55517;BME280;41724;51.176;-0.708;2022-10-31T02:34:52;101169.08;;;16.76;56.39
55517;BME280;41724;51.176;-0.708;2022-10-31T02:37:29;101167.12;;;16.74;56.32
55517;BME280;41724;51.176;-0.708;2022-10-31T02:40:06;101163.75;;;16.62;57.95
55517;BME280;41724;51.176;-0.708;2022-10-31T02:42:45;101162.38;;;16.74;55.60
55517;BME280;41724;51.176;-0.708;2022-10-31T02:45:23;101163.33;;;16.80;55.35
55517;BME280;41724;51.176;-0.708;2022-10-31T02:47:55;101165.42;;;16.67;56.22
55517;BME280;41724;51.176;-0.708;2022-10-31T02:50:28;101166.85;;;16.77;56.38
55517;BME280;41724;51.176;-0.708;2022-10-31T02:52:57;101163.06;;;16.73;56.59
55517;BME280;41724;51.176;-0.708;2022-10-31T02:55:47;101159.23;;;16.95;57.19
55517;BME280;41724;51.176;-0.708;2022-10-31T02:58:19;101156.07;;;17.04;57.31
55517;BME280;41724;51.176;-0.708;2022-10-31T03:00:59;101153.78;;;16.82;57.37
55517;BME280;41724;51.176;-0.708;2022-10-31T03:03:35;101154.64;;;17.19;58.05
55517;BME280;41724;51.176;-0.708;2022-10-31T03:06:10;101159.87;;;16.98;58.02
55517;BME280;41724;51.176;-0.708;2022-10-31T03:08:45;101153.68;;;17.18;57.59
55517;BME280;41724;51.176;-0.708;2022-10-31T03:11:18;101151.81;;;17.22;57.42
55517;BME280;41724;51.176;-0.708;2022-10-31T03:13:51;101155.40;;;17.04;56.72
55517;BME280;41724;51.176;-0.708;2022-10-31T03:16:29;101152.90;;;16.94;58.98
55517;BME280;41724;51.176;-0.708;2022-10-31T03:19:03;101160.22;;;16.96;58.20
55517;BME280;41724;51.176;-0.708;2022-10-31T03:21:35;101158.22;;;17.13;57.56
55517;BME280;41724;51.176;-0.708;2022-10-31T03:24:05;101153.48;;;17.17;57.74
55517;BME280;41724;51.176;-0.708;2022-10-31T03:26:35;101154.57;;;17.27;57.55
55517;BME280;41724;51.176;-0.708;2022-10-31T03:29:05;101156.94;;;17.24;58.81
55517;BME280;41724;51.176;-0.708;2022-10-31T03:31:36;101160.99;;;17.29;57.92
55517;BME280;41724;51.176;-0.708;2022-10-31T03:34:07;101161.10;;;17.42;57.85
55517;BME280;41724;51.176;-0.708;2022-10-31T03:36:39;101158.82;;;17.15;57.57
55517;BME280;41724;51.176;-0.708;2022-10-31T03:39:11;101153.76;;;17.25;57.73
55517;BME280;41724;51.176;-0.708;2022-10-31T03:41:43;101151.12;;;17.00;57.60
55517;BME280;41724;51.176;-0.708;2022-10-31T03:44:14;101153.01;;;17.35;56.89
55517;BME280;41724;51.176;-0.708;2022-10-31T03:46:43;101154.43;;;17.25;56.80
55517;BME280;41724;51.176;-0.708;2022-10-31T03:49:11;101153.91;;;17.42;56.36
55517;BME280;41724;51.176;-0.708;2022-10-31T03:51:43;101148.69;;;17.10;57.08
55517;BME280;41724;51.176;-0.708;2022-10-31T03:54:16;101148.12;;;17.31;57.00
55517;BME280;41724;51.176;-0.708;2022-10-31T03:56:51;101145.64;;;17.24;56.80
55517;BME280;41724;51.176;-0.708;2022-10-31T03:59:24;101144.38;;;17.24;56.31
55517;BME280;41724;51.176;-0.708;2022-10-31T04:02:03;101140.64;;;17.14;57.25
55517;BME280;41724;51.176;-0.708;2022-10-31T04:04:33;101136.71;;;17.13;57.29
55517;BME280;41724;51.176;-0.708;2022-10-31T04:07:01;101128.78;;;17.05;56.67
55517;BME280;41724;51.176;-0.708;2022-10-31T04:09:32;101129.20;;;17.01;56.55
55517;BME280;41724;51.176;-0.708;2022-10-31T04:12:01;101129.57;;;16.91;57.67
55517;BME280;41724;51.176;-0.708;2022-10-31T04:14:31;101130.53;;;16.68;57.79
55517;BME280;41724;51.176;-0.708;2022-10-31T04:17:00;101131.06;;;16.84;58.75
55517;BME280;41724;51.176;-0.708;2022-10-31T04:19:28;101135.49;;;16.72;58.28
55517;BME280;41724;51.176;-0.708;2022-10-31T04:21:55;101138.53;;;17.03;57.57
55517;BME280;41724;51.176;-0.708;2022-10-31T04:24:23;101137.62;;;17.01;57.32
55517;BME280;41724;51.176;-0.708;2022-10-31T04:26:50;101142.08;;;16.99;56.88
55517;BME280;41724;51.176;-0.708;2022-10-31T04:29:17;101139.42;;;16.92;56.80
55517;BME280;41724;51.176;-0.708;2022-10-31T04:31:44;101134.34;;;16.94;56.55
55517;BME280;41724;51.176;-0.708;2022-10-31T04:34:12;101125.74;;;16.89;56.60
55517;BME280;41724;51.176;-0.708;2022-10-31T04:36:39;101123.81;;;16.63;56.93
55517;BME280;41724;51.176;-0.708;2022-10-31T04:39:06;101127.34;;;16.82;56.44
55517;BME280;41724;51.176;-0.708;2022-10-31T04:41:33;101126.36;;;16.51;56.95
55517;BME280;41724;51.176;-0.708;2022-10-31T04:44:01;101126.19;;;16.47;57.04
55517;BME280;41724;51.176;-0.708;2022-10-31T04:46:28;101124.60;;;16.51;57.30
55517;BME280;41724;51.176;-0.708;2022-10-31T04:48:55;101120.55;;;16.68;56.66
55517;BME280;41724;51.176;-0.708;2022-10-31T04:51:22;101120.91;;;16.42;56.90
55517;BME280;41724;51.176;-0.708;2022-10-31T04:53:49;101116.46;;;16.32;56.78
55517;BME280;41724;51.176;-0.708;2022-10-31T04:56:17;101118.92;;;16.22;57.13
55517;BME280;41724;51.176;-0.708;2022-10-31T04:58:44;101116.96;;;16.21;56.49
55517;BME280;41724;51.176;-0.708;2022-10-31T05:01:11;101120.63;;;16.20;57.01
55517;BME280;41724;51.176;-0.708;2022-10-31T05:03:38;101116.92;;;16.33;56.36
55517;BME280;41724;51.176;-0.708;2022-10-31T05:06:06;101119.63;;;16.15;56.38
55517;BME280;41724;51.176;-0.708;2022-10-31T05:08:33;101117.84;;;16.24;56.68
55517;BME280;41724;51.176;-0.708;2022-10-31T05:11:00;101121.93;;;15.98;56.75
55517;BME280;41724;51.176;-0.708;2022-10-31T05:13:28;101119.49;;;15.78;56.10
55517;BME280;41724;51.176;-0.708;2022-10-31T05:15:55;101112.07;;;16.11;56.09
55517;BME280;41724;51.176;-0.708;2022-10-31T05:18:22;101104.94;;;15.88;56.50
55517;BME280;41724;51.176;-0.708;2022-10-31T05:20:49;101099.36;;;15.82;56.55
55517;BME280;41724;51.176;-0.708;2022-10-31T05:23:17;101094.35;;;16.03;55.72
55517;BME280;41724;51.176;-0.708;2022-10-31T05:25:45;101095.41;;;15.87;55.56
55517;BME280;41724;51.176;-0.708;2022-10-31T05:28:12;101093.55;;;15.76;56.34
55517;BME280;41724;51.176;-0.708;2022-10-31T05:30:39;101091.84;;;15.71;56.35
55517;BME280;41724;51.176;-0.708;2022-10-31T05:33:07;101091.66;;;15.64;56.12
55517;BME280;41724;51.176;-0.708;2022-10-31T05:35:34;101099.87;;;15.20;60.60
55517;BME280;41724;51.176;-0.708;2022-10-31T05:38:01;101094.98;;;15.40;58.43
55517;BME280;41724;51.176;-0.708;2022-10-31T05:40:28;101093.87;;;15.78;58.00
55517;BME280;41724;51.176;-0.708;2022-10-31T05:42:57;101094.32;;;15.97;57.82
55517;BME280;41724;51.176;-0.708;2022-10-31T05:45:24;101097.21;;;15.99;57.67
55517;BME280;41724;51.176;-0.708;2022-10-31T05:47:52;101099.02;;;16.03;56.56
55517;BME280;41724;51.176;-0.708;2022-10-31T05:50:19;101094.85;;;16.00;56.32
55517;BME280;41724;51.176;-0.708;2022-10-31T05:52:47;101090.08;;;15.87;56.48
55517;BME280;41724;51.176;-0.708;2022-10-31T05:55:14;101086.16;;;15.96;56.23
55517;BME280;41724;51.176;-0.708;2022-10-31T05:57:42;101086.60;;;15.81;56.18
55517;BME280;41724;51.176;-0.708;2022-10-31T06:00:10;101086.13;;;15.64;55.63
55517;BME280;41724;51.176;-0.708;2022-10-31T06:02:37;101080.06;;;15.56;56.55
55517;BME280;41724;51.176;-0.708;2022-10-31T06:05:04;101075.69;;;15.68;57.33
55517;BME280;41724;51.176;-0.708;2022-10-31T06:07:33;101074.39;;;15.64;57.06
55517;BME280;41724;51.176;-0.708;2022-10-31T06:10:00;101071.09;;;15.46;61.04
55517;BME280;41724;51.176;-0.708;2022-10-31T06:12:27;101068.68;;;15.53;58.41
55517;BME280;41724;51.176;-0.708;2022-10-31T06:14:54;101064.43;;;15.83;56.80
55517;BME280;41724;51.176;-0.708;2022-10-31T06:17:22;101064.68;;;15.71;56.79
55517;BME280;41724;51.176;-0.708;2022-10-31T06:19:49;101065.46;;;15.66;56.72
55517;BME280;41724;51.176;-0.708;2022-10-31T06:22:16;101068.88;;;15.63;56.57
55517;BME280;41724;51.176;-0.708;2022-10-31T06:24:43;101066.07;;;15.40;56.63
55517;BME280;41724;51.176;-0.708;2022-10-31T06:27:11;101066.31;;;15.76;56.56
55517;BME280;41724;51.176;-0.708;2022-10-31T06:29:43;101059.53;;;15.65;56.72
55517;BME280;41724;51.176;-0.708;2022-10-31T06:32:11;101055.42;;;15.65;56.46
55517;BME280;41724;51.176;-0.708;2022-10-31T06:34:39;101052.13;;;15.58;56.52
55517;BME280;41724;51.176;-0.708;2022-10-31T06:37:07;101049.71;;;15.85;57.85
55517;BME280;41724;51.176;-0.708;2022-10-31T06:39:34;101046.24;;;15.39;58.71
55517;BME280;41724;51.176;-0.708;2022-10-31T06:42:01;101048.90;;;15.62;58.46
55517;BME280;41724;51.176;-0.708;2022-10-31T06:44:28;101051.65;;;16.06;57.19
55517;BME280;41724;51.176;-0.708;2022-10-31T06:46:56;101050.65;;;16.02;57.36
55517;BME280;41724;51.176;-0.708;2022-10-31T06:49:23;101054.13;;;16.00;56.97
55517;BME280;41724;51.176;-0.708;2022-10-31T06:51:50;101052.38;;;15.79;57.41
55517;BME280;41724;51.176;-0.708;2022-10-31T06:54:18;101052.82;;;15.73;58.17
55517;BME280;41724;51.176;-0.708;2022-10-31T06:56:46;101054.40;;;15.96;57.28
55517;BME280;41724;51.176;-0.708;2022-10-31T06:59:13;101055.71;;;15.76;57.58
55517;BME280;41724;51.176;-0.708;2022-10-31T07:01:40;101050.34;;;15.92;57.64
55517;BME280;41724;51.176;-0.708;2022-10-31T07:04:10;101050.48;;;15.97;57.52
55517;BME280;41724;51.176;-0.708;2022-10-31T07:06:37;101047.04;;;16.05;57.33
55517;BME280;41724;51.176;-0.708;2022-10-31T07:09:05;101043.15;;;15.89;57.29
55517;BME280;41724;51.176;-0.708;2022-10-31T07:11:32;101040.60;;;15.80;56.75
55517;BME280;41724;51.176;-0.708;2022-10-31T07:13:59;101035.82;;;16.37;56.17
55517;BME280;41724;51.176;-0.708;2022-10-31T07:16:26;101034.79;;;15.79;56.35
55517;BME280;41724;51.176;-0.708;2022-10-31T07:18:53;101036.14;;;15.75;55.94
55517;BME280;41724;51.176;-0.708;2022-10-31T07:21:21;101037.67;;;16.08;56.30
55517;BME280;41724;51.176;-0.708;2022-10-31T07:23:48;101038.12;;;15.98;55.15
55517;BME280;41724;51.176;-0.708;2022-10-31T07:26:15;101039.47;;;15.76;55.24
55517;BME280;41724;51.176;-0.708;2022-10-31T07:28:43;101040.72;;;15.79;55.92
55517;BME280;41724;51.176;-0.708;2022-10-31T07:31:10;101038.21;;;15.82;55.64
55517;BME280;41724;51.176;-0.708;2022-10-31T07:33:37;101038.46;;;15.84;55.86
55517;BME280;41724;51.176;-0.708;2022-10-31T07:36:05;101038.39;;;15.84;56.18
55517;BME280;41724;51.176;-0.708;2022-10-31T07:38:32;101041.88;;;15.83;56.17
55517;BME280;41724;51.176;-0.708;2022-10-31T07:41:00;101036.53;;;15.98;56.08
55517;BME280;41724;51.176;-0.708;2022-10-31T07:43:27;101036.11;;;15.94;56.47
55517;BME280;41724;51.176;-0.708;2022-10-31T07:45:54;101032.62;;;15.96;56.70
55517;BME280;41724;51.176;-0.708;2022-10-31T07:48:21;101028.28;;;16.04;56.68
55517;BME280;41724;51.176;-0.708;2022-10-31T07:50:49;101028.13;;;15.82;56.60
55517;BME280;41724;51.176;-0.708;2022-10-31T07:53:16;101027.50;;;16.10;56.65
55517;BME280;41724;51.176;-0.708;2022-10-31T07:55:43;101029.05;;;16.13;56.30
55517;BME280;41724;51.176;-0.708;2022-10-31T07:58:12;101027.38;;;16.13;56.57
55517;BME280;41724;51.176;-0.708;2022-10-31T08:00:40;101027.89;;;16.16;56.50
55517;BME280;41724;51.176;-0.708;2022-10-31T08:03:09;101022.91;;;16.00;57.14
55517;BME280;41724;51.176;-0.708;2022-10-31T08:05:37;101018.96;;;16.34;56.91
55517;BME280;41724;51.176;-0.708;2022-10-31T08:08:05;101021.53;;;15.81;60.74
55517;BME280;41724;51.176;-0.708;2022-10-31T08:10:32;101022.07;;;16.02;60.47
55517;BME280;41724;51.176;-0.708;2022-10-31T08:13:02;101019.30;;;15.77;61.46
55517;BME280;41724;51.176;-0.708;2022-10-31T08:15:30;101018.03;;;16.47;59.34
55517;BME280;41724;51.176;-0.708;2022-10-31T08:17:57;101017.94;;;16.66;58.57
55517;BME280;41724;51.176;-0.708;2022-10-31T08:20:24;101022.09;;;16.73;59.15
55517;BME280;41724;51.176;-0.708;2022-10-31T08:22:54;101020.20;;;16.87;58.16
55517;BME280;41724;51.176;-0.708;2022-10-31T08:25:23;101019.44;;;16.93;59.08
55517;BME280;41724;51.176;-0.708;2022-10-31T08:27:51;101019.94;;;16.86;59.08
55517;BME280;41724;51.176;-0.708;2022-10-31T08:30:19;101020.93;;;17.12;58.57
55517;BME280;41724;51.176;-0.708;2022-10-31T08:32:47;101024.11;;;17.13;59.20
55517;BME280;41724;51.176;-0.708;2022-10-31T08:35:14;101025.57;;;16.90;58.65
55517;BME280;41724;51.176;-0.708;2022-10-31T08:37:41;101019.63;;;16.98;59.53
55517;BME280;41724;51.176;-0.708;2022-10-31T08:40:10;101011.82;;;16.57;60.06
55517;BME280;41724;51.176;-0.708;2022-10-31T08:42:37;101013.35;;;17.25;59.22
55517;BME280;41724;51.176;-0.708;2022-10-31T08:45:05;101011.98;;;17.02;59.46
55517;BME280;41724;51.176;-0.708;2022-10-31T08:47:32;101011.39;;;17.50;59.15
55517;BME280;41724;51.176;-0.708;2022-10-31T08:49:59;101003.19;;;17.28;59.71
55517;BME280;41724;51.176;-0.708;2022-10-31T08:52:26;100998.91;;;15.86;63.72
55517;BME280;41724;51.176;-0.708;2022-10-31T08:54:53;100992.32;;;17.22;60.37
55517;BME280;41724;51.176;-0.708;2022-10-31T08:57:21;100988.66;;;17.39;60.57
55517;BME280;41724;51.176;-0.708;2022-10-31T08:59:48;100990.88;;;16.93;61.06
55517;BME280;41724;51.176;-0.708;2022-10-31T09:02:15;100983.11;;;17.48;60.63
55517;BME280;41724;51.176;-0.708;2022-10-31T09:04:42;100978.81;;;17.73;60.08
55517;BME280;41724;51.176;-0.708;2022-10-31T09:07:10;100973.85;;;17.81;59.04
55517;BME280;41724;51.176;-0.708;2022-10-31T09:09:37;100970.67;;;17.32;60.14
55517;BME280;41724;51.176;-0.708;2022-10-31T09:12:04;100968.96;;;18.01;58.80
55517;BME280;41724;51.176;-0.708;2022-10-31T09:14:31;100961.38;;;18.19;58.76
55517;BME280;41724;51.176;-0.708;2022-10-31T09:16:59;100959.69;;;18.42;58.76
55517;BME280;41724;51.176;-0.708;2022-10-31T09:19:26;100954.75;;;17.88;60.49
55517;BME280;41724;51.176;-0.708;2022-10-31T09:21:53;100950.07;;;17.76;60.47
55517;BME280;41724;51.176;-0.708;2022-10-31T09:24:20;100948.72;;;17.62;61.94
55517;BME280;41724;51.176;-0.708;2022-10-31T09:26:48;100944.42;;;17.69;61.80
55517;BME280;41724;51.176;-0.708;2022-10-31T09:29:20;100950.07;;;16.99;63.54
55517;BME280;41724;51.176;-0.708;2022-10-31T09:31:47;100943.68;;;17.86;61.60
55517;BME280;41724;51.176;-0.708;2022-10-31T09:34:14;100938.89;;;17.77;61.27
55517;BME280;41724;51.176;-0.708;2022-10-31T09:36:42;100933.44;;;17.71;61.45
55517;BME280;41724;51.176;-0.708;2022-10-31T09:39:09;100929.92;;;18.10;60.59
55517;BME280;41724;51.176;-0.708;2022-10-31T09:41:50;100928.19;;;18.34;59.81
55517;BME280;41724;51.176;-0.708;2022-10-31T09:44:26;100927.97;;;16.83;62.96
55517;BME280;41724;51.176;-0.708;2022-10-31T09:47:03;100920.96;;;18.10;59.92
55517;BME280;41724;51.176;-0.708;2022-10-31T09:49:42;100916.41;;;18.45;59.68
55517;BME280;41724;51.176;-0.708;2022-10-31T09:52:20;100916.28;;;17.75;61.69
55517;BME280;41724;51.176;-0.708;2022-10-31T09:54:52;100914.48;;;18.60;60.02
55517;BME280;41724;51.176;-0.708;2022-10-31T09:57:25;100912.21;;;17.61;62.69
55517;BME280;41724;51.176;-0.708;2022-10-31T09:59:54;100913.70;;;18.71;59.31
55517;BME280;41724;51.176;-0.708;2022-10-31T10:02:26;100911.99;;;17.61;61.93
55517;BME280;41724;51.176;-0.708;2022-10-31T10:04:59;100904.88;;;18.82;59.29
55517;BME280;41724;51.176;-0.708;2022-10-31T10:07:32;100905.28;;;17.72;61.66
55517;BME280;41724;51.176;-0.708;2022-10-31T10:10:14;100898.84;;;17.72;62.86
55517;BME280;41724;51.176;-0.708;2022-10-31T10:12:57;100894.81;;;18.71;60.21
55517;BME280;41724;51.176;-0.708;2022-10-31T10:15:43;100897.31;;;18.29;59.99
55517;BME280;41724;51.176;-0.708;2022-10-31T10:18:23;100896.86;;;18.53;60.29
55517;BME280;41724;51.176;-0.708;2022-10-31T10:21:04;100896.96;;;18.81;59.52
55517;BME280;41724;51.176;-0.708;2022-10-31T10:23:42;100889.23;;;17.66;62.25
55517;BME280;41724;51.176;-0.708;2022-10-31T10:26:16;100884.43;;;18.45;60.02
55517;BME280;41724;51.176;-0.708;2022-10-31T10:28:48;100881.51;;;18.93;58.20
55517;BME280;41724;51.176;-0.708;2022-10-31T10:31:20;100878.89;;;19.63;56.17
55517;BME280;41724;51.176;-0.708;2022-10-31T10:34:00;100879.46;;;20.25;56.12
55517;BME280;41724;51.176;-0.708;2022-10-31T10:36:33;100876.29;;;19.79;57.60
55517;BME280;41724;51.176;-0.708;2022-10-31T10:39:07;100869.89;;;19.76;56.94
55517;BME280;41724;51.176;-0.708;2022-10-31T10:41:41;100873.47;;;20.02;56.75
55517;BME280;41724;51.176;-0.708;2022-10-31T10:44:10;100869.02;;;19.14;57.28
55517;BME280;41724;51.176;-0.708;2022-10-31T10:46:41;100867.04;;;19.20;57.72
55517;BME280;41724;51.176;-0.708;2022-10-31T10:49:15;100861.16;;;19.06;55.41
55517;BME280;41724;51.176;-0.708;2022-10-31T10:51:45;100860.41;;;18.88;55.43
55517;BME280;41724;51.176;-0.708;2022-10-31T10:54:29;100856.23;;;19.26;53.65
55517;BME280;41724;51.176;-0.708;2022-10-31T10:57:09;100856.65;;;20.05;53.62
55517;BME280;41724;51.176;-0.708;2022-10-31T10:59:38;100856.22;;;20.30;52.39
55517;BME280;41724;51.176;-0.708;2022-10-31T11:02:17;100853.70;;;20.20;53.05
55517;BME280;41724;51.176;-0.708;2022-10-31T11:04:47;100855.84;;;20.37;52.15
55517;BME280;41724;51.176;-0.708;2022-10-31T11:07:15;100858.39;;;20.60;52.16
55517;BME280;41724;51.176;-0.708;2022-10-31T11:09:42;100857.17;;;20.95;51.35
55517;BME280;41724;51.176;-0.708;2022-10-31T11:12:15;100847.79;;;20.62;52.09
55517;BME280;41724;51.176;-0.708;2022-10-31T11:14:49;100844.77;;;21.00;51.10
55517;BME280;41724;51.176;-0.708;2022-10-31T11:17:26;100840.21;;;21.62;49.91
55517;BME280;41724;51.176;-0.708;2022-10-31T11:20:01;100825.06;;;20.86;51.30
55517;BME280;41724;51.176;-0.708;2022-10-31T11:22:29;100818.45;;;21.21;49.80
55517;BME280;41724;51.176;-0.708;2022-10-31T11:24:57;100808.54;;;21.76;48.56
55517;BME280;41724;51.176;-0.708;2022-10-31T11:27:26;100796.58;;;22.04;48.45
55517;BME280;41724;51.176;-0.708;2022-10-31T11:30:06;100788.06;;;22.09;47.26
55517;BME280;41724;51.176;-0.708;2022-10-31T11:32:33;100785.26;;;22.36;46.47
55517;BME280;41724;51.176;-0.708;2022-10-31T11:35:08;100786.60;;;21.15;46.89
55517;BME280;41724;51.176;-0.708;2022-10-31T11:37:41;100779.88;;;21.98;46.25
55517;BME280;41724;51.176;-0.708;2022-10-31T11:40:17;100775.58;;;22.04;47.54
55517;BME280;41724;51.176;-0.708;2022-10-31T11:42:45;100770.57;;;21.64;44.80
55517;BME280;41724;51.176;-0.708;2022-10-31T11:45:15;100760.05;;;22.09;45.29
55517;BME280;41724;51.176;-0.708;2022-10-31T11:47:46;100758.51;;;21.05;45.98
55517;BME280;41724;51.176;-0.708;2022-10-31T11:50:21;100756.00;;;20.67;46.49
55517;BME280;41724;51.176;-0.708;2022-10-31T11:52:50;100751.39;;;20.95;47.29
55517;BME280;41724;51.176;-0.708;2022-10-31T11:55:31;100742.63;;;21.63;48.14
55517;BME280;41724;51.176;-0.708;2022-10-31T11:57:59;100735.29;;;21.99;47.22
55517;BME280;41724;51.176;-0.708;2022-10-31T12:00:28;100730.42;;;21.64;46.80
55517;BME280;41724;51.176;-0.708;2022-10-31T12:03:11;100729.55;;;20.95;49.45
55517;BME280;41724;51.176;-0.708;2022-10-31T12:05:40;100722.35;;;21.05;50.52
55517;BME280;41724;51.176;-0.708;2022-10-31T12:08:11;100716.01;;;21.81;46.64
55517;BME280;41724;51.176;-0.708;2022-10-31T12:10:46;100696.98;;;22.42;47.30
55517;BME280;41724;51.176;-0.708;2022-10-31T12:13:30;100702.26;;;21.62;45.99
55517;BME280;41724;51.176;-0.708;2022-10-31T12:16:05;100695.63;;;21.12;46.40
55517;BME280;41724;51.176;-0.708;2022-10-31T12:18:45;100689.66;;;22.03;46.66
55517;BME280;41724;51.176;-0.708;2022-10-31T12:21:23;100693.65;;;21.46;46.16
55517;BME280;41724;51.176;-0.708;2022-10-31T12:24:06;100683.92;;;21.01;46.31
55517;BME280;41724;51.176;-0.708;2022-10-31T12:26:42;100676.36;;;22.26;45.97
55517;BME280;41724;51.176;-0.708;2022-10-31T12:29:24;100675.52;;;22.09;47.29
55517;BME280;41724;51.176;-0.708;2022-10-31T12:32:11;100669.51;;;21.52;47.19
55517;BME280;41724;51.176;-0.708;2022-10-31T12:34:53;100655.91;;;22.24;46.30
55517;BME280;41724;51.176;-0.708;2022-10-31T12:37:34;100656.71;;;22.71;46.74
55517;BME280;41724;51.176;-0.708;2022-10-31T12:40:21;100648.61;;;21.90;46.46
55517;BME280;41724;51.176;-0.708;2022-10-31T12:42:59;100642.81;;;22.38;47.94
55517;BME280;41724;51.176;-0.708;2022-10-31T12:45:41;100639.04;;;22.41;48.05
55517;BME280;41724;51.176;-0.708;2022-10-31T12:48:24;100627.39;;;22.05;48.17
55517;BME280;41724;51.176;-0.708;2022-10-31T12:50:59;100622.36;;;21.94;48.75
55517;BME280;41724;51.176;-0.708;2022-10-31T12:53:43;100615.07;;;22.16;47.13
55517;BME280;41724;51.176;-0.708;2022-10-31T12:56:26;100606.66;;;21.01;48.56
55517;BME280;41724;51.176;-0.708;2022-10-31T12:59:01;100599.85;;;21.39;48.23